sensor_id;sensor_type;location;lat;lon;timestamp;pressure;altitude;pressure_sealevel;temperature;humidity
35647;BME280;28680;45.642;13.756;2023-03-19T00:00:21;101557.88;;;9.99;100.00
35647;BME280;28680;45.642;13.756;2023-03-19T00:02:47;101565.00;;;9.97;100.00
35647;BME280;28680;45.642;13.756;2023-03-19T00:05:16;101572.00;;;10.10;100.00
35647;BME280;28680;45.642;13.756;2023-03-19T00:07:43;101570.34;;;9.95;100.00
35647;BME280;28680;45.642;13.756;2023-03-19T00:10:09;101556.19;;;9.98;100.00
35647;BME280;28680;45.642;13.756;2023-03-19T00:12:35;101565.28;;;9.92;100.00
35647;BME280;28680;45.642;13.756;2023-03-19T00:15:02;101564.09;;;9.83;100.00
35647;BME280;28680;45.642;13.756;2023-03-19T00:17:28;101563.22;;;9.83;100.00
35647;BME280;28680;45.642;13.756;2023-03-19T00:19:53;101565.19;;;9.79;100.00
35647;BME280;28680;45.642;13.756;2023-03-19T00:22:19;101567.19;;;9.75;100.00
35647;BME280;28680;45.642;13.756;2023-03-19T00:24:45;101580.00;;;9.80;100.00
35647;BME280;28680;45.642;13.756;2023-03-19T00:27:11;101573.06;;;9.93;100.00
35647;BME280;28680;45.642;13.756;2023-03-19T00:29:37;101567.81;;;10.08;100.00
35647;BME280;28680;45.642;13.756;2023-03-19T00:32:03;101578.31;;;9.93;100.00
35647;BME280;28680;45.642;13.756;2023-03-19T00:34:29;101566.16;;;9.92;100.00
35647;BME280;28680;45.642;13.756;2023-03-19T00:36:55;101563.63;;;9.91;100.00
35647;BME280;28680;45.642;13.756;2023-03-19T00:39:21;101560.91;;;9.92;100.00
35647;BME280;28680;45.642;13.756;2023-03-19T00:41:47;101548.53;;;9.80;100.00
35647;BME280;28680;45.642;13.756;2023-03-19T00:44:16;101549.59;;;9.63;100.00
35647;BME280;28680;45.642;13.756;2023-03-19T00:46:44;101552.28;;;9.62;100.00
35647;BME280;28680;45.642;13.756;2023-03-19T00:49:10;101558.56;;;9.59;100.00
35647;BME280;28680;45.642;13.756;2023-03-19T00:51:36;101559.41;;;9.60;100.00
35647;BME280;28680;45.642;13.756;2023-03-19T00:54:02;101565.69;;;9.57;100.00
35647;BME280;28680;45.642;13.756;2023-03-19T00:56:28;101568.22;;;9.59;100.00
35647;BME280;28680;45.642;13.756;2023-03-19T00:58:56;101562.88;;;9.60;100.00
35647;BME280;28680;45.642;13.756;2023-03-19T01:01:21;101550.72;;;9.59;100.00
35647;BME280;28680;45.642;13.756;2023-03-19T01:03:48;101545.66;;;9.70;100.00
35647;BME280;28680;45.642;13.756;2023-03-19T01:06:15;101551.47;;;9.61;100.00
35647;BME280;28680;45.642;13.756;2023-03-19T01:08:40;101539.38;;;9.44;100.00
35647;BME280;28680;45.642;13.756;2023-03-19T01:11:11;101537.97;;;9.39;100.00
35647;BME280;28680;45.642;13.756;2023-03-19T01:13:38;101545.00;;;9.38;100.00
35647;BME280;28680;45.642;13.756;2023-03-19T01:16:05;101549.88;;;9.44;100.00
35647;BME280;28680;45.642;13.756;2023-03-19T01:18:31;101541.63;;;9.50;100.00
35647;BME280;28680;45.642;13.756;2023-03-19T01:20:57;101549.03;;;9.44;100.00
35647;BME280;28680;45.642;13.756;2023-03-19T01:23:23;101544.25;;;9.36;100.00
35647;BME280;28680;45.642;13.756;2023-03-19T01:25:49;101540.31;;;9.29;100.00
35647;BME280;28680;45.642;13.756;2023-03-19T01:28:16;101535.72;;;9.18;100.00
35647;BME280;28680;45.642;13.756;2023-03-19T01:30:42;101536.75;;;9.15;100.00
35647;BME280;28680;45.642;13.756;2023-03-19T01:33:08;101536.38;;;9.22;100.00
35647;BME280;28680;45.642;13.756;2023-03-19T01:35:34;101529.38;;;9.36;100.00
35647;BME280;28680;45.642;13.756;2023-03-19T01:38:00;101533.47;;;9.41;100.00
35647;BME280;28680;45.642;13.756;2023-03-19T01:40:26;101535.53;;;9.50;100.00
35647;BME280;28680;45.642;13.756;2023-03-19T01:43:19;101527.66;;;9.35;100.00
35647;BME280;28680;45.642;13.756;2023-03-19T01:45:57;101531.88;;;9.24;100.00
35647;BME280;28680;45.642;13.756;2023-03-19T01:48:49;101536.75;;;9.30;100.00
35647;BME280;28680;45.642;13.756;2023-03-19T01:51:19;101534.50;;;9.24;100.00
35647;BME280;28680;45.642;13.756;2023-03-19T01:53:52;101533.47;;;9.12;100.00
35647;BME280;28680;45.642;13.756;2023-03-19T01:56:30;101537.00;;;9.11;100.00
35647;BME280;28680;45.642;13.756;2023-03-19T01:59:09;101528.97;;;9.14;100.00
35647;BME280;28680;45.642;13.756;2023-03-19T02:02:00;101523.44;;;9.18;100.00
35647;BME280;28680;45.642;13.756;2023-03-19T02:04:29;101524.09;;;9.22;100.00
35647;BME280;28680;45.642;13.756;2023-03-19T02:06:57;101519.41;;;9.13;100.00
35647;BME280;28680;45.642;13.756;2023-03-19T02:09:26;101521.28;;;9.11;100.00
35647;BME280;28680;45.642;13.756;2023-03-19T02:11:54;101520.38;;;9.12;100.00
35647;BME280;28680;45.642;13.756;2023-03-19T02:14:21;101522.81;;;9.15;100.00
35647;BME280;28680;45.642;13.756;2023-03-19T02:16:47;101525.69;;;9.10;100.00
35647;BME280;28680;45.642;13.756;2023-03-19T02:19:42;101521.56;;;9.06;100.00
35647;BME280;28680;45.642;13.756;2023-03-19T02:22:12;101511.28;;;9.03;100.00
35647;BME280;28680;45.642;13.756;2023-03-19T02:27:15;101524.41;;;9.17;100.00
35647;BME280;28680;45.642;13.756;2023-03-19T02:29:42;101527.56;;;9.08;100.00
35647;BME280;28680;45.642;13.756;2023-03-19T02:32:07;101528.75;;;9.03;100.00
35647;BME280;28680;45.642;13.756;2023-03-19T02:34:41;101525.41;;;9.01;100.00
35647;BME280;28680;45.642;13.756;2023-03-19T02:37:23;101524.66;;;8.98;100.00
35647;BME280;28680;45.642;13.756;2023-03-19T02:40:26;101522.94;;;8.97;100.00
35647;BME280;28680;45.642;13.756;2023-03-19T02:42:54;101522.19;;;8.95;100.00
35647;BME280;28680;45.642;13.756;2023-03-19T02:45:20;101525.84;;;8.93;100.00
35647;BME280;28680;45.642;13.756;2023-03-19T02:47:46;101520.78;;;8.90;100.00
35647;BME280;28680;45.642;13.756;2023-03-19T02:50:12;101514.72;;;8.89;100.00
35647;BME280;28680;45.642;13.756;2023-03-19T02:52:39;101517.25;;;8.91;100.00
35647;BME280;28680;45.642;13.756;2023-03-19T02:55:05;101516.97;;;8.95;100.00
35647;BME280;28680;45.642;13.756;2023-03-19T02:57:32;101512.19;;;8.88;100.00
35647;BME280;28680;45.642;13.756;2023-03-19T02:59:58;101513.97;;;8.87;100.00
35647;BME280;28680;45.642;13.756;2023-03-19T03:02:24;101517.41;;;8.88;100.00
35647;BME280;28680;45.642;13.756;2023-03-19T03:04:50;101507.16;;;8.85;100.00
35647;BME280;28680;45.642;13.756;2023-03-19T03:07:16;101512.47;;;8.83;100.00
35647;BME280;28680;45.642;13.756;2023-03-19T03:09:42;101519.66;;;8.80;100.00
35647;BME280;28680;45.642;13.756;2023-03-19T03:12:08;101522.72;;;8.86;100.00
35647;BME280;28680;45.642;13.756;2023-03-19T03:14:34;101533.31;;;8.85;100.00
35647;BME280;28680;45.642;13.756;2023-03-19T03:17:00;101517.63;;;8.85;100.00
35647;BME280;28680;45.642;13.756;2023-03-19T03:19:26;101531.66;;;8.98;100.00
35647;BME280;28680;45.642;13.756;2023-03-19T03:21:52;101521.19;;;8.98;100.00
35647;BME280;28680;45.642;13.756;2023-03-19T03:24:18;101531.22;;;9.06;100.00
35647;BME280;28680;45.642;13.756;2023-03-19T03:26:44;101531.38;;;9.03;100.00
35647;BME280;28680;45.642;13.756;2023-03-19T03:29:10;101526.22;;;9.01;100.00
35647;BME280;28680;45.642;13.756;2023-03-19T03:31:36;101529.44;;;9.06;100.00
35647;BME280;28680;45.642;13.756;2023-03-19T03:34:02;101531.84;;;8.95;100.00
35647;BME280;28680;45.642;13.756;2023-03-19T03:36:29;101538.41;;;8.72;100.00
35647;BME280;28680;45.642;13.756;2023-03-19T03:38:55;101541.38;;;8.66;100.00
35647;BME280;28680;45.642;13.756;2023-03-19T03:41:21;101535.88;;;8.70;100.00
35647;BME280;28680;45.642;13.756;2023-03-19T03:43:46;101530.56;;;8.72;100.00
35647;BME280;28680;45.642;13.756;2023-03-19T03:46:13;101529.16;;;8.66;100.00
35647;BME280;28680;45.642;13.756;2023-03-19T03:48:39;101517.94;;;8.64;100.00
35647;BME280;28680;45.642;13.756;2023-03-19T03:51:05;101517.34;;;8.59;100.00
35647;BME280;28680;45.642;13.756;2023-03-19T03:53:31;101520.25;;;8.54;100.00
35647;BME280;28680;45.642;13.756;2023-03-19T03:55:57;101524.28;;;8.60;100.00
35647;BME280;28680;45.642;13.756;2023-03-19T03:58:23;101522.06;;;8.68;100.00
35647;BME280;28680;45.642;13.756;2023-03-19T04:00:49;101525.34;;;8.72;100.00
35647;BME280;28680;45.642;13.756;2023-03-19T04:03:16;101520.19;;;8.70;100.00
35647;BME280;28680;45.642;13.756;2023-03-19T04:05:43;101525.09;;;8.61;100.00
35647;BME280;28680;45.642;13.756;2023-03-19T04:08:09;101530.78;;;8.53;100.00
35647;BME280;28680;45.642;13.756;2023-03-19T04:10:39;101533.78;;;8.61;100.00
35647;BME280;28680;45.642;13.756;2023-03-19T04:13:07;101535.28;;;8.65;100.00
35647;BME280;28680;45.642;13.756;2023-03-19T04:15:34;101529.63;;;8.73;100.00
35647;BME280;28680;45.642;13.756;2023-03-19T04:18:01;101533.84;;;8.75;100.00
35647;BME280;28680;45.642;13.756;2023-03-19T04:20:28;101528.34;;;8.80;100.00
35647;BME280;28680;45.642;13.756;2023-03-19T04:22:53;101531.78;;;8.81;100.00
35647;BME280;28680;45.642;13.756;2023-03-19T04:25:20;101528.41;;;8.78;100.00
35647;BME280;28680;45.642;13.756;2023-03-19T04:27:45;101524.22;;;8.76;100.00
35647;BME280;28680;45.642;13.756;2023-03-19T04:30:12;101526.84;;;8.76;100.00
35647;BME280;28680;45.642;13.756;2023-03-19T04:32:38;101523.16;;;8.64;100.00
35647;BME280;28680;45.642;13.756;2023-03-19T04:35:05;101531.69;;;8.52;100.00
35647;BME280;28680;45.642;13.756;2023-03-19T04:37:31;101534.75;;;8.44;100.00
35647;BME280;28680;45.642;13.756;2023-03-19T04:39:57;101535.84;;;8.40;100.00
35647;BME280;28680;45.642;13.756;2023-03-19T04:42:24;101530.28;;;8.46;100.00
35647;BME280;28680;45.642;13.756;2023-03-19T04:44:50;101548.78;;;8.43;100.00
35647;BME280;28680;45.642;13.756;2023-03-19T04:47:17;101541.50;;;8.48;100.00
35647;BME280;28680;45.642;13.756;2023-03-19T04:49:43;101544.03;;;8.50;100.00
35647;BME280;28680;45.642;13.756;2023-03-19T04:52:09;101551.53;;;8.56;100.00
35647;BME280;28680;45.642;13.756;2023-03-19T04:54:35;101547.28;;;8.69;100.00
35647;BME280;28680;45.642;13.756;2023-03-19T04:57:01;101543.47;;;8.75;100.00
35647;BME280;28680;45.642;13.756;2023-03-19T04:59:27;101544.78;;;8.68;100.00
35647;BME280;28680;45.642;13.756;2023-03-19T05:01:53;101547.59;;;8.49;100.00
35647;BME280;28680;45.642;13.756;2023-03-19T05:04:19;101547.91;;;8.43;100.00
35647;BME280;28680;45.642;13.756;2023-03-19T05:06:44;101552.63;;;8.52;100.00
35647;BME280;28680;45.642;13.756;2023-03-19T05:09:11;101560.56;;;8.50;100.00
35647;BME280;28680;45.642;13.756;2023-03-19T05:11:37;101571.63;;;8.55;100.00
35647;BME280;28680;45.642;13.756;2023-03-19T05:14:03;101579.00;;;8.49;100.00
35647;BME280;28680;45.642;13.756;2023-03-19T05:16:30;101581.41;;;8.52;100.00
35647;BME280;28680;45.642;13.756;2023-03-19T05:18:56;101565.94;;;8.63;100.00
35647;BME280;28680;45.642;13.756;2023-03-19T05:21:22;101564.75;;;8.69;100.00
35647;BME280;28680;45.642;13.756;2023-03-19T05:23:48;101574.78;;;8.76;100.00
35647;BME280;28680;45.642;13.756;2023-03-19T05:26:17;101576.72;;;8.73;100.00
35647;BME280;28680;45.642;13.756;2023-03-19T05:28:43;101585.03;;;8.65;100.00
35647;BME280;28680;45.642;13.756;2023-03-19T05:31:09;101584.34;;;8.77;100.00
35647;BME280;28680;45.642;13.756;2023-03-19T05:33:35;101589.72;;;8.90;100.00
35647;BME280;28680;45.642;13.756;2023-03-19T05:36:01;101594.97;;;8.90;100.00
35647;BME280;28680;45.642;13.756;2023-03-19T05:38:27;101601.94;;;8.90;100.00
35647;BME280;28680;45.642;13.756;2023-03-19T05:40:53;101610.91;;;8.86;100.00
35647;BME280;28680;45.642;13.756;2023-03-19T05:43:19;101610.66;;;8.90;100.00
35647;BME280;28680;45.642;13.756;2023-03-19T05:45:50;101612.50;;;8.88;100.00
35647;BME280;28680;45.642;13.756;2023-03-19T05:48:19;101613.09;;;8.93;100.00
35647;BME280;28680;45.642;13.756;2023-03-19T05:50:45;101612.56;;;9.03;100.00
35647;BME280;28680;45.642;13.756;2023-03-19T05:53:11;101611.94;;;9.13;100.00
35647;BME280;28680;45.642;13.756;2023-03-19T05:55:37;101607.38;;;9.17;100.00
35647;BME280;28680;45.642;13.756;2023-03-19T05:58:03;101604.38;;;9.23;100.00
35647;BME280;28680;45.642;13.756;2023-03-19T06:00:30;101604.63;;;9.18;100.00
35647;BME280;28680;45.642;13.756;2023-03-19T06:02:57;101609.25;;;9.29;100.00
35647;BME280;28680;45.642;13.756;2023-03-19T06:05:22;101615.63;;;9.25;100.00
35647;BME280;28680;45.642;13.756;2023-03-19T06:07:48;101620.31;;;9.34;100.00
35647;BME280;28680;45.642;13.756;2023-03-19T06:10:15;101617.78;;;9.33;100.00
35647;BME280;28680;45.642;13.756;2023-03-19T06:12:41;101615.06;;;9.34;100.00
35647;BME280;28680;45.642;13.756;2023-03-19T06:15:07;101628.25;;;9.33;100.00
35647;BME280;28680;45.642;13.756;2023-03-19T06:17:34;101620.41;;;9.33;100.00
35647;BME280;28680;45.642;13.756;2023-03-19T06:20:00;101636.72;;;9.38;100.00
35647;BME280;28680;45.642;13.756;2023-03-19T06:22:26;101650.34;;;9.29;100.00
35647;BME280;28680;45.642;13.756;2023-03-19T06:24:52;101656.34;;;9.31;100.00
35647;BME280;28680;45.642;13.756;2023-03-19T06:27:18;101658.34;;;9.42;100.00
35647;BME280;28680;45.642;13.756;2023-03-19T06:29:44;101658.25;;;9.57;100.00
35647;BME280;28680;45.642;13.756;2023-03-19T06:32:10;101659.97;;;9.59;100.00
35647;BME280;28680;45.642;13.756;2023-03-19T06:34:36;101662.03;;;9.68;100.00
35647;BME280;28680;45.642;13.756;2023-03-19T06:37:02;101666.25;;;9.70;100.00
35647;BME280;28680;45.642;13.756;2023-03-19T06:39:28;101666.13;;;9.57;100.00
35647;BME280;28680;45.642;13.756;2023-03-19T06:41:54;101665.28;;;9.71;100.00
35647;BME280;28680;45.642;13.756;2023-03-19T06:44:20;101661.38;;;9.79;100.00
35647;BME280;28680;45.642;13.756;2023-03-19T06:46:46;101658.09;;;9.89;100.00
35647;BME280;28680;45.642;13.756;2023-03-19T06:49:12;101663.81;;;9.96;100.00
35647;BME280;28680;45.642;13.756;2023-03-19T06:51:38;101660.53;;;10.07;100.00
35647;BME280;28680;45.642;13.756;2023-03-19T06:54:04;101664.91;;;10.21;100.00
35647;BME280;28680;45.642;13.756;2023-03-19T06:56:30;101675.44;;;10.35;100.00
35647;BME280;28680;45.642;13.756;2023-03-19T06:58:55;101671.31;;;10.45;100.00
35647;BME280;28680;45.642;13.756;2023-03-19T07:01:21;101673.16;;;10.58;100.00
35647;BME280;28680;45.642;13.756;2023-03-19T07:03:47;101678.47;;;10.70;100.00
35647;BME280;28680;45.642;13.756;2023-03-19T07:06:14;101684.81;;;10.81;100.00
35647;BME280;28680;45.642;13.756;2023-03-19T07:08:40;101680.06;;;11.00;100.00
35647;BME280;28680;45.642;13.756;2023-03-19T07:11:11;101684.66;;;11.24;100.00
35647;BME280;28680;45.642;13.756;2023-03-19T07:13:37;101687.34;;;11.49;100.00
35647;BME280;28680;45.642;13.756;2023-03-19T07:16:03;101691.47;;;11.66;100.00
35647;BME280;28680;45.642;13.756;2023-03-19T07:18:29;101690.31;;;11.83;100.00
35647;BME280;28680;45.642;13.756;2023-03-19T07:20:56;101694.31;;;12.02;100.00
35647;BME280;28680;45.642;13.756;2023-03-19T07:23:22;101684.75;;;12.14;100.00
35647;BME280;28680;45.642;13.756;2023-03-19T07:25:48;101686.63;;;12.24;100.00
35647;BME280;28680;45.642;13.756;2023-03-19T07:28:14;101691.31;;;12.45;100.00
35647;BME280;28680;45.642;13.756;2023-03-19T07:30:41;101696.84;;;12.66;100.00
35647;BME280;28680;45.642;13.756;2023-03-19T07:33:07;101689.41;;;12.84;100.00
35647;BME280;28680;45.642;13.756;2023-03-19T07:35:33;101688.91;;;13.03;100.00
35647;BME280;28680;45.642;13.756;2023-03-19T07:37:59;101695.41;;;13.10;100.00
35647;BME280;28680;45.642;13.756;2023-03-19T07:40:27;101697.41;;;13.31;100.00
35647;BME280;28680;45.642;13.756;2023-03-19T07:42:53;101700.06;;;13.31;100.00
35647;BME280;28680;45.642;13.756;2023-03-19T07:45:19;101702.25;;;13.37;100.00
35647;BME280;28680;45.642;13.756;2023-03-19T07:47:45;101689.91;;;13.37;100.00
35647;BME280;28680;45.642;13.756;2023-03-19T07:50:12;101692.03;;;13.32;100.00
35647;BME280;28680;45.642;13.756;2023-03-19T07:52:37;101686.28;;;13.03;100.00
35647;BME280;28680;45.642;13.756;2023-03-19T07:55:04;101696.75;;;12.92;100.00
35647;BME280;28680;45.642;13.756;2023-03-19T07:57:30;101694.50;;;12.98;100.00
35647;BME280;28680;45.642;13.756;2023-03-19T07:59:57;101691.44;;;13.04;100.00
35647;BME280;28680;45.642;13.756;2023-03-19T08:02:23;101698.22;;;12.96;100.00
35647;BME280;28680;45.642;13.756;2023-03-19T08:04:49;101684.09;;;12.97;100.00
35647;BME280;28680;45.642;13.756;2023-03-19T08:07:16;101689.84;;;13.02;100.00
35647;BME280;28680;45.642;13.756;2023-03-19T08:09:42;101685.13;;;13.18;100.00
35647;BME280;28680;45.642;13.756;2023-03-19T08:12:08;101686.69;;;13.45;100.00
35647;BME280;28680;45.642;13.756;2023-03-19T08:14:34;101690.69;;;13.73;100.00
35647;BME280;28680;45.642;13.756;2023-03-19T08:17:01;101691.56;;;13.96;100.00
35647;BME280;28680;45.642;13.756;2023-03-19T08:19:27;101698.53;;;14.20;100.00
35647;BME280;28680;45.642;13.756;2023-03-19T08:21:53;101706.47;;;14.20;100.00
35647;BME280;28680;45.642;13.756;2023-03-19T08:24:18;101707.28;;;14.43;100.00
35647;BME280;28680;45.642;13.756;2023-03-19T08:26:45;101709.22;;;14.64;100.00
35647;BME280;28680;45.642;13.756;2023-03-19T08:29:11;101716.53;;;14.71;100.00
35647;BME280;28680;45.642;13.756;2023-03-19T08:31:37;101706.59;;;14.30;100.00
35647;BME280;28680;45.642;13.756;2023-03-19T08:34:03;101709.34;;;14.06;100.00
35647;BME280;28680;45.642;13.756;2023-03-19T08:36:30;101713.16;;;14.01;100.00
35647;BME280;28680;45.642;13.756;2023-03-19T08:38:57;101709.91;;;13.87;100.00
35647;BME280;28680;45.642;13.756;2023-03-19T08:41:24;101710.75;;;13.87;100.00
35647;BME280;28680;45.642;13.756;2023-03-19T08:43:50;101717.34;;;13.93;100.00
35647;BME280;28680;45.642;13.756;2023-03-19T08:46:16;101719.41;;;14.00;100.00
35647;BME280;28680;45.642;13.756;2023-03-19T08:48:43;101719.19;;;14.26;100.00
35647;BME280;28680;45.642;13.756;2023-03-19T08:51:10;101717.97;;;14.64;100.00
35647;BME280;28680;45.642;13.756;2023-03-19T08:53:37;101720.44;;;14.88;100.00
35647;BME280;28680;45.642;13.756;2023-03-19T08:56:05;101714.75;;;15.04;100.00
35647;BME280;28680;45.642;13.756;2023-03-19T08:58:33;101729.56;;;15.28;100.00
35647;BME280;28680;45.642;13.756;2023-03-19T09:01:06;101729.47;;;15.50;100.00
35647;BME280;28680;45.642;13.756;2023-03-19T09:03:32;101736.94;;;15.66;100.00
35647;BME280;28680;45.642;13.756;2023-03-19T09:06:04;101747.09;;;15.82;100.00
35647;BME280;28680;45.642;13.756;2023-03-19T09:08:31;101735.81;;;16.01;100.00
35647;BME280;28680;45.642;13.756;2023-03-19T09:10:58;101742.44;;;16.16;100.00
35647;BME280;28680;45.642;13.756;2023-03-19T09:13:24;101738.47;;;16.32;100.00
35647;BME280;28680;45.642;13.756;2023-03-19T09:15:53;101736.28;;;16.47;100.00
35647;BME280;28680;45.642;13.756;2023-03-19T09:18:19;101743.00;;;16.61;100.00
35647;BME280;28680;45.642;13.756;2023-03-19T09:20:46;101739.44;;;16.81;100.00
35647;BME280;28680;45.642;13.756;2023-03-19T09:23:12;101736.41;;;16.95;100.00
35647;BME280;28680;45.642;13.756;2023-03-19T09:25:38;101735.44;;;16.97;100.00
35647;BME280;28680;45.642;13.756;2023-03-19T09:28:04;101720.09;;;17.10;100.00
35647;BME280;28680;45.642;13.756;2023-03-19T09:30:30;101725.41;;;17.29;94.43
35647;BME280;28680;45.642;13.756;2023-03-19T09:32:56;101732.38;;;17.40;90.44
35647;BME280;28680;45.642;13.756;2023-03-19T09:35:22;101734.31;;;17.48;92.18
35647;BME280;28680;45.642;13.756;2023-03-19T09:37:48;101729.59;;;17.42;90.45
35647;BME280;28680;45.642;13.756;2023-03-19T09:40:40;101737.28;;;17.45;93.09
35647;BME280;28680;45.642;13.756;2023-03-19T09:43:50;101743.13;;;17.58;89.07
35647;BME280;28680;45.642;13.756;2023-03-19T09:49:27;101742.53;;;17.74;87.86
35647;BME280;28680;45.642;13.756;2023-03-19T09:52:33;101746.75;;;17.86;84.53
35647;BME280;28680;45.642;13.756;2023-03-19T09:55:43;101732.03;;;18.02;83.30
35647;BME280;28680;45.642;13.756;2023-03-19T09:58:22;101723.88;;;18.13;76.03
35647;BME280;28680;45.642;13.756;2023-03-19T10:00:52;101729.56;;;18.28;86.52
35647;BME280;28680;45.642;13.756;2023-03-19T10:06:34;101724.84;;;18.49;83.30
35647;BME280;28680;45.642;13.756;2023-03-19T10:12:07;101722.66;;;18.63;81.12
35647;BME280;28680;45.642;13.756;2023-03-19T10:17:55;101720.56;;;18.84;86.48
35647;BME280;28680;45.642;13.756;2023-03-19T10:20:46;101729.56;;;19.01;87.45
35647;BME280;28680;45.642;13.756;2023-03-19T10:23:37;101723.63;;;19.25;78.80
35647;BME280;28680;45.642;13.756;2023-03-19T10:26:09;101731.84;;;19.32;79.11
35647;BME280;28680;45.642;13.756;2023-03-19T10:28:37;101729.50;;;19.29;85.00
35647;BME280;28680;45.642;13.756;2023-03-19T10:32:15;101732.16;;;19.29;86.52
35647;BME280;28680;45.642;13.756;2023-03-19T10:37:12;101724.97;;;19.47;82.59
35647;BME280;28680;45.642;13.756;2023-03-19T10:39:42;101730.25;;;19.65;82.58
35647;BME280;28680;45.642;13.756;2023-03-19T10:43:03;101725.31;;;19.71;80.45
35647;BME280;28680;45.642;13.756;2023-03-19T10:45:35;101716.81;;;19.93;71.08
35647;BME280;28680;45.642;13.756;2023-03-19T10:48:03;101725.66;;;19.94;67.42
35647;BME280;28680;45.642;13.756;2023-03-19T10:50:58;101725.03;;;19.74;69.42
35647;BME280;28680;45.642;13.756;2023-03-19T10:53:38;101716.72;;;20.03;65.88
35647;BME280;28680;45.642;13.756;2023-03-19T10:56:17;101717.34;;;19.97;64.56
35647;BME280;28680;45.642;13.756;2023-03-19T10:59:04;101717.47;;;19.87;65.01
35647;BME280;28680;45.642;13.756;2023-03-19T11:01:41;101717.47;;;19.87;65.91
35647;BME280;28680;45.642;13.756;2023-03-19T11:04:22;101719.78;;;19.90;64.07
35647;BME280;28680;45.642;13.756;2023-03-19T11:07:01;101713.00;;;19.96;65.02
35647;BME280;28680;45.642;13.756;2023-03-19T11:09:40;101716.78;;;19.85;62.06
35647;BME280;28680;45.642;13.756;2023-03-19T11:12:20;101728.38;;;19.76;61.00
35647;BME280;28680;45.642;13.756;2023-03-19T11:14:51;101723.72;;;19.78;58.62
35647;BME280;28680;45.642;13.756;2023-03-19T11:17:48;101710.03;;;19.73;59.38
35647;BME280;28680;45.642;13.756;2023-03-19T11:20:33;101720.28;;;19.67;58.97
35647;BME280;28680;45.642;13.756;2023-03-19T11:23:01;101713.16;;;19.68;57.43
35647;BME280;28680;45.642;13.756;2023-03-19T11:25:54;101710.56;;;19.76;57.98
35647;BME280;28680;45.642;13.756;2023-03-19T11:28:24;101710.19;;;19.97;57.05
35647;BME280;28680;45.642;13.756;2023-03-19T11:31:11;101707.91;;;20.11;56.11
35647;BME280;28680;45.642;13.756;2023-03-19T11:52:40;101693.44;;;20.56;69.22
35647;BME280;28680;45.642;13.756;2023-03-19T11:58:43;101695.50;;;20.70;76.08
35647;BME280;28680;45.642;13.756;2023-03-19T12:12:10;101684.00;;;20.94;62.90
35647;BME280;28680;45.642;13.756;2023-03-19T12:17:38;101669.34;;;20.82;61.30
35647;BME280;28680;45.642;13.756;2023-03-19T12:20:31;101665.00;;;20.81;61.23
35647;BME280;28680;45.642;13.756;2023-03-19T12:23:41;101662.63;;;20.70;59.09
35647;BME280;28680;45.642;13.756;2023-03-19T12:26:38;101657.66;;;20.99;61.84
35647;BME280;28680;45.642;13.756;2023-03-19T12:29:33;101661.34;;;21.15;56.05
35647;BME280;28680;45.642;13.756;2023-03-19T12:32:21;101657.81;;;21.22;60.21
35647;BME280;28680;45.642;13.756;2023-03-19T12:35:00;101650.84;;;21.21;64.66
35647;BME280;28680;45.642;13.756;2023-03-19T12:37:36;101649.16;;;21.20;60.52
35647;BME280;28680;45.642;13.756;2023-03-19T12:42:49;101646.50;;;21.29;60.09
35647;BME280;28680;45.642;13.756;2023-03-19T12:45:43;101642.81;;;21.21;59.99
35647;BME280;28680;45.642;13.756;2023-03-19T12:48:30;101637.81;;;21.51;65.93
35647;BME280;28680;45.642;13.756;2023-03-19T12:51:07;101633.94;;;21.70;57.42
35647;BME280;28680;45.642;13.756;2023-03-19T12:53:58;101632.78;;;21.32;59.93
35647;BME280;28680;45.642;13.756;2023-03-19T12:56:38;101637.91;;;21.74;59.28
35647;BME280;28680;45.642;13.756;2023-03-19T12:59:41;101624.44;;;21.99;58.54
35647;BME280;28680;45.642;13.756;2023-03-19T13:08:13;101617.69;;;22.19;62.03
35647;BME280;28680;45.642;13.756;2023-03-19T13:10:42;101621.03;;;22.13;67.06
35647;BME280;28680;45.642;13.756;2023-03-19T13:13:53;101618.00;;;22.16;66.70
35647;BME280;28680;45.642;13.756;2023-03-19T13:19:33;101612.72;;;21.60;77.11
35647;BME280;28680;45.642;13.756;2023-03-19T13:22:08;101610.63;;;21.48;82.75
35647;BME280;28680;45.642;13.756;2023-03-19T13:24:38;101611.63;;;21.22;92.96
35647;BME280;28680;45.642;13.756;2023-03-19T13:27:31;101604.97;;;20.93;96.93
35647;BME280;28680;45.642;13.756;2023-03-19T13:32:49;101602.47;;;20.67;100.00
35647;BME280;28680;45.642;13.756;2023-03-19T13:38:13;101612.88;;;20.28;100.00
35647;BME280;28680;45.642;13.756;2023-03-19T13:40:57;101613.75;;;19.94;100.00
35647;BME280;28680;45.642;13.756;2023-03-19T13:54:16;101608.50;;;20.18;100.00
35647;BME280;28680;45.642;13.756;2023-03-19T13:59:36;101600.38;;;20.28;100.00
35647;BME280;28680;45.642;13.756;2023-03-19T14:05:13;101591.25;;;19.62;100.00
35647;BME280;28680;45.642;13.756;2023-03-19T14:07:47;101595.50;;;19.46;100.00
35647;BME280;28680;45.642;13.756;2023-03-19T14:13:08;101586.41;;;19.23;100.00
35647;BME280;28680;45.642;13.756;2023-03-19T14:15:49;101589.97;;;18.87;100.00
35647;BME280;28680;45.642;13.756;2023-03-19T14:18:20;101584.31;;;18.73;100.00
35647;BME280;28680;45.642;13.756;2023-03-19T14:21:00;101591.84;;;18.59;100.00
35647;BME280;28680;45.642;13.756;2023-03-19T14:23:28;101578.16;;;18.72;100.00
35647;BME280;28680;45.642;13.756;2023-03-19T14:26:16;101574.44;;;18.65;100.00